sensor_id;sensor_type;location;lat;lon;timestamp;pressure;altitude;pressure_sealevel;temperature
64296;BMP280;51082;38.236;15.432;2023-06-22T00:00:56;101747.81;;;23.10
64296;BMP280;51082;38.236;15.432;2023-06-22T00:02:01;101743.59;;;23.09
64296;BMP280;51082;38.236;15.432;2023-06-22T00:03:04;101738.81;;;23.11
64296;BMP280;51082;38.236;15.432;2023-06-22T00:04:06;101742.78;;;23.08
64296;BMP280;51082;38.236;15.432;2023-06-22T00:05:09;101731.09;;;23.09
64296;BMP280;51082;38.236;15.432;2023-06-22T00:06:14;101737.19;;;23.10
64296;BMP280;51082;38.236;15.432;2023-06-22T00:07:17;101739.59;;;23.12
64296;BMP280;51082;38.236;15.432;2023-06-22T00:08:19;101738.00;;;23.11
64296;BMP280;51082;38.236;15.432;2023-06-22T00:09:22;101739.31;;;23.08
64296;BMP280;51082;38.236;15.432;2023-06-22T00:10:25;101742.22;;;23.06
64296;BMP280;51082;38.236;15.432;2023-06-22T00:11:28;101738.50;;;23.07
64296;BMP280;51082;38.236;15.432;2023-06-22T00:12:30;101739.03;;;23.04
64296;BMP280;51082;38.236;15.432;2023-06-22T00:13:35;101737.69;;;23.07
64296;BMP280;51082;38.236;15.432;2023-06-22T00:14:37;101725.75;;;23.09
64296;BMP280;51082;38.236;15.432;2023-06-22T00:15:42;101734.00;;;23.08
64296;BMP280;51082;38.236;15.432;2023-06-22T00:16:44;101733.19;;;23.07
64296;BMP280;51082;38.236;15.432;2023-06-22T00:17:50;101729.22;;;23.05
64296;BMP280;51082;38.236;15.432;2023-06-22T00:18:54;101737.41;;;23.03
64296;BMP280;51082;38.236;15.432;2023-06-22T00:19:57;101732.63;;;23.00
64296;BMP280;51082;38.236;15.432;2023-06-22T00:21:00;101741.91;;;23.03
64296;BMP280;51082;38.236;15.432;2023-06-22T00:22:04;101740.56;;;23.00
64296;BMP280;51082;38.236;15.432;2023-06-22T00:23:06;101739.19;;;22.98
64296;BMP280;51082;38.236;15.432;2023-06-22T00:24:11;101736.53;;;22.98
64296;BMP280;51082;38.236;15.432;2023-06-22T00:25:13;101733.09;;;22.97
64296;BMP280;51082;38.236;15.432;2023-06-22T00:26:17;101731.50;;;22.96
64296;BMP280;51082;38.236;15.432;2023-06-22T00:27:20;101738.41;;;22.97
64296;BMP280;51082;38.236;15.432;2023-06-22T00:28:22;101735.47;;;22.94
64296;BMP280;51082;38.236;15.432;2023-06-22T00:29:26;101736.53;;;22.98
64296;BMP280;51082;38.236;15.432;2023-06-22T00:30:28;101737.56;;;22.92
64296;BMP280;51082;38.236;15.432;2023-06-22T00:31:33;101740.28;;;22.97
64296;BMP280;51082;38.236;15.432;2023-06-22T00:32:35;101739.72;;;22.95
64296;BMP280;51082;38.236;15.432;2023-06-22T00:33:38;101739.16;;;22.93
64296;BMP280;51082;38.236;15.432;2023-06-22T00:34:39;101739.09;;;22.88
64296;BMP280;51082;38.236;15.432;2023-06-22T00:35:42;101739.66;;;22.90
64296;BMP280;51082;38.236;15.432;2023-06-22T00:36:45;101742.81;;;22.87
64296;BMP280;51082;38.236;15.432;2023-06-22T00:37:50;101734.28;;;22.85
64296;BMP280;51082;38.236;15.432;2023-06-22T00:38:53;101739.09;;;22.88
64296;BMP280;51082;38.236;15.432;2023-06-22T00:39:54;101740.44;;;22.90
64296;BMP280;51082;38.236;15.432;2023-06-22T00:40:57;101745.22;;;22.88
64296;BMP280;51082;38.236;15.432;2023-06-22T00:42:01;101743.38;;;22.89
64296;BMP280;51082;38.236;15.432;2023-06-22T00:43:04;101742.06;;;22.91
64296;BMP280;51082;38.236;15.432;2023-06-22T00:44:08;101739.41;;;22.91
64296;BMP280;51082;38.236;15.432;2023-06-22T00:45:15;101736.72;;;22.86
64296;BMP280;51082;38.236;15.432;2023-06-22T00:46:17;101744.41;;;22.88
64296;BMP280;51082;38.236;15.432;2023-06-22T00:47:20;101750.75;;;22.82
64296;BMP280;51082;38.236;15.432;2023-06-22T00:48:22;101741.94;;;22.81
64296;BMP280;51082;38.236;15.432;2023-06-22T00:49:25;101735.31;;;22.79
64296;BMP280;51082;38.236;15.432;2023-06-22T00:50:28;101737.97;;;22.79
64296;BMP280;51082;38.236;15.432;2023-06-22T00:51:34;101732.06;;;22.77
64296;BMP280;51082;38.236;15.432;2023-06-22T00:52:42;101731.00;;;22.72
64296;BMP280;51082;38.236;15.432;2023-06-22T00:53:51;101731.00;;;22.72
64296;BMP280;51082;38.236;15.432;2023-06-22T00:54:55;101730.75;;;22.74
64296;BMP280;51082;38.236;15.432;2023-06-22T00:55:57;101731.00;;;22.72
64296;BMP280;51082;38.236;15.432;2023-06-22T00:57:08;101733.91;;;22.71
64296;BMP280;51082;38.236;15.432;2023-06-22T00:58:13;101739.22;;;22.71
64296;BMP280;51082;38.236;15.432;2023-06-22T00:59:16;101737.84;;;22.68
64296;BMP280;51082;38.236;15.432;2023-06-22T01:00:18;101738.91;;;22.67
64296;BMP280;51082;38.236;15.432;2023-06-22T01:01:21;101734.63;;;22.66
64296;BMP280;51082;38.236;15.432;2023-06-22T01:02:24;101741.00;;;22.65
64296;BMP280;51082;38.236;15.432;2023-06-22T01:03:26;101727.47;;;22.67
64296;BMP280;51082;38.236;15.432;2023-06-22T01:04:35;101725.63;;;22.67
64296;BMP280;51082;38.236;15.432;2023-06-22T01:05:41;101726.13;;;22.64
64296;BMP280;51082;38.236;15.432;2023-06-22T01:06:50;101733.28;;;22.64
64296;BMP280;51082;38.236;15.432;2023-06-22T01:08:08;101727.41;;;22.62
64296;BMP280;51082;38.236;15.432;2023-06-22T01:09:15;101733.78;;;22.61
64296;BMP280;51082;38.236;15.432;2023-06-22T01:10:24;101728.75;;;22.59
64296;BMP280;51082;38.236;15.432;2023-06-22T01:11:34;101728.16;;;22.57
64296;BMP280;51082;38.236;15.432;2023-06-22T01:12:47;101722.84;;;22.57
64296;BMP280;51082;38.236;15.432;2023-06-22T01:13:59;101724.16;;;22.55
64296;BMP280;51082;38.236;15.432;2023-06-22T01:15:08;101715.63;;;22.53
64296;BMP280;51082;38.236;15.432;2023-06-22T01:16:17;101719.06;;;22.53
64296;BMP280;51082;38.236;15.432;2023-06-22T01:17:23;101724.66;;;22.52
64296;BMP280;51082;38.236;15.432;2023-06-22T01:18:26;101722.25;;;22.50
64296;BMP280;51082;38.236;15.432;2023-06-22T01:19:37;101724.66;;;22.52
64296;BMP280;51082;38.236;15.432;2023-06-22T01:20:42;101723.84;;;22.51
64296;BMP280;51082;38.236;15.432;2023-06-22T01:21:46;101716.94;;;22.50
64296;BMP280;51082;38.236;15.432;2023-06-22T01:23:01;101732.03;;;22.50
64296;BMP280;51082;38.236;15.432;2023-06-22T01:24:15;101723.56;;;22.48
64296;BMP280;51082;38.236;15.432;2023-06-22T01:25:21;101717.44;;;22.47
64296;BMP280;51082;38.236;15.432;2023-06-22T01:26:37;101717.97;;;22.49
64296;BMP280;51082;38.236;15.432;2023-06-22T01:27:53;101717.16;;;22.49
64296;BMP280;51082;38.236;15.432;2023-06-22T01:29:00;101720.16;;;22.52
64296;BMP280;51082;38.236;15.432;2023-06-22T01:30:05;101718.56;;;22.51
64296;BMP280;51082;38.236;15.432;2023-06-22T01:31:12;101709.47;;;22.47
64296;BMP280;51082;38.236;15.432;2023-06-22T01:32:16;101709.97;;;22.44
64296;BMP280;51082;38.236;15.432;2023-06-22T01:33:21;101712.63;;;22.44
64296;BMP280;51082;38.236;15.432;2023-06-22T01:34:23;101716.84;;;22.45
64296;BMP280;51082;38.236;15.432;2023-06-22T01:35:26;101714.19;;;22.45
64296;BMP280;51082;38.236;15.432;2023-06-22T01:36:29;101705.22;;;22.46
64296;BMP280;51082;38.236;15.432;2023-06-22T01:37:34;101712.63;;;22.44
64296;BMP280;51082;38.236;15.432;2023-06-22T01:38:37;101706.50;;;22.44
64296;BMP280;51082;38.236;15.432;2023-06-22T01:39:44;101709.63;;;22.40
64296;BMP280;51082;38.236;15.432;2023-06-22T01:40:46;101703.00;;;22.38
64296;BMP280;51082;38.236;15.432;2023-06-22T01:41:50;101705.41;;;22.39
64296;BMP280;51082;38.236;15.432;2023-06-22T01:42:54;101712.28;;;22.40
64296;BMP280;51082;38.236;15.432;2023-06-22T01:43:59;101700.66;;;22.42
64296;BMP280;51082;38.236;15.432;2023-06-22T01:45:02;101705.41;;;22.39
64296;BMP280;51082;38.236;15.432;2023-06-22T01:46:06;101696.34;;;22.40
64296;BMP280;51082;38.236;15.432;2023-06-22T01:47:08;101710.16;;;22.37
64296;BMP280;51082;38.236;15.432;2023-06-22T01:48:11;101696.88;;;22.37
64296;BMP280;51082;38.236;15.432;2023-06-22T01:49:13;101702.19;;;22.37
64296;BMP280;51082;38.236;15.432;2023-06-22T01:50:19;101698.72;;;22.37
64296;BMP280;51082;38.236;15.432;2023-06-22T01:51:21;101701.94;;;22.39
64296;BMP280;51082;38.236;15.432;2023-06-22T01:52:24;101700.09;;;22.39
64296;BMP280;51082;38.236;15.432;2023-06-22T01:53:26;101704.03;;;22.37
64296;BMP280;51082;38.236;15.432;2023-06-22T01:54:31;101700.59;;;22.36
64296;BMP280;51082;38.236;15.432;2023-06-22T01:55:32;101696.63;;;22.39
64296;BMP280;51082;38.236;15.432;2023-06-22T01:56:35;101690.47;;;22.33
64296;BMP280;51082;38.236;15.432;2023-06-22T01:57:40;101688.13;;;22.37
64296;BMP280;51082;38.236;15.432;2023-06-22T01:58:48;101695.03;;;22.38
64296;BMP280;51082;38.236;15.432;2023-06-22T01:59:57;101687.81;;;22.33
64296;BMP280;51082;38.236;15.432;2023-06-22T02:01:10;101691.75;;;22.31
64296;BMP280;51082;38.236;15.432;2023-06-22T02:02:15;101687.78;;;22.28
64296;BMP280;51082;38.236;15.432;2023-06-22T02:03:21;101686.69;;;22.29
64296;BMP280;51082;38.236;15.432;2023-06-22T02:04:29;101697.00;;;22.26
64296;BMP280;51082;38.236;15.432;2023-06-22T02:05:38;101689.31;;;22.24
64296;BMP280;51082;38.236;15.432;2023-06-22T02:06:45;101683.69;;;22.21
64296;BMP280;51082;38.236;15.432;2023-06-22T02:07:52;101683.13;;;22.19
64296;BMP280;51082;38.236;15.432;2023-06-22T02:09:09;101681.78;;;22.16
64296;BMP280;51082;38.236;15.432;2023-06-22T02:10:14;101679.91;;;22.17
64296;BMP280;51082;38.236;15.432;2023-06-22T02:11:21;101678.38;;;22.21
64296;BMP280;51082;38.236;15.432;2023-06-22T02:12:25;101686.38;;;22.26
64296;BMP280;51082;38.236;15.432;2023-06-22T02:13:29;101681.88;;;22.26
64296;BMP280;51082;38.236;15.432;2023-06-22T02:14:33;101682.69;;;22.27
64296;BMP280;51082;38.236;15.432;2023-06-22T02:15:39;101682.69;;;22.27
64296;BMP280;51082;38.236;15.432;2023-06-22T02:16:42;101688.50;;;22.24
64296;BMP280;51082;38.236;15.432;2023-06-22T02:17:45;101681.66;;;22.28
64296;BMP280;51082;38.236;15.432;2023-06-22T02:18:47;101689.03;;;22.26
64296;BMP280;51082;38.236;15.432;2023-06-22T02:19:52;101686.66;;;22.24
64296;BMP280;51082;38.236;15.432;2023-06-22T02:20:53;101692.28;;;22.28
64296;BMP280;51082;38.236;15.432;2023-06-22T02:21:56;101683.19;;;22.24
64296;BMP280;51082;38.236;15.432;2023-06-22T02:22:58;101686.66;;;22.24
64296;BMP280;51082;38.236;15.432;2023-06-22T02:24:00;101684.50;;;22.21
64296;BMP280;51082;38.236;15.432;2023-06-22T02:25:02;101681.03;;;22.21
64296;BMP280;51082;38.236;15.432;2023-06-22T02:26:11;101680.47;;;22.19
64296;BMP280;51082;38.236;15.432;2023-06-22T02:27:14;101684.16;;;22.18
64296;BMP280;51082;38.236;15.432;2023-06-22T02:28:16;101687.47;;;22.25
64296;BMP280;51082;38.236;15.432;2023-06-22T02:29:18;101683.41;;;22.22
64296;BMP280;51082;38.236;15.432;2023-06-22T02:30:21;101682.63;;;22.22
64296;BMP280;51082;38.236;15.432;2023-06-22T02:31:25;101681.84;;;22.21
64296;BMP280;51082;38.236;15.432;2023-06-22T02:32:31;101686.59;;;22.19
64296;BMP280;51082;38.236;15.432;2023-06-22T02:33:35;101683.63;;;22.16
64296;BMP280;51082;38.236;15.432;2023-06-22T02:34:38;101680.38;;;22.14
64296;BMP280;51082;38.236;15.432;2023-06-22T02:35:39;101681.47;;;22.13
64296;BMP280;51082;38.236;15.432;2023-06-22T02:36:46;101678.56;;;22.14
64296;BMP280;51082;38.236;15.432;2023-06-22T02:37:51;101673.50;;;22.13
64296;BMP280;51082;38.236;15.432;2023-06-22T02:38:56;101680.91;;;22.11
64296;BMP280;51082;38.236;15.432;2023-06-22T02:40:02;101677.19;;;22.12
64296;BMP280;51082;38.236;15.432;2023-06-22T02:41:09;101680.34;;;22.09
64296;BMP280;51082;38.236;15.432;2023-06-22T02:42:14;101677.69;;;22.09
64296;BMP280;51082;38.236;15.432;2023-06-22T02:43:21;101678.25;;;22.11
64296;BMP280;51082;38.236;15.432;2023-06-22T02:44:23;101677.69;;;22.09
64296;BMP280;51082;38.236;15.432;2023-06-22T02:45:26;101682.50;;;22.12
64296;BMP280;51082;38.236;15.432;2023-06-22T02:46:33;101680.91;;;22.11
64296;BMP280;51082;38.236;15.432;2023-06-22T02:47:36;101677.69;;;22.09
64296;BMP280;51082;38.236;15.432;2023-06-22T02:48:39;101682.44;;;22.06
64296;BMP280;51082;38.236;15.432;2023-06-22T02:49:42;101680.59;;;22.07
64296;BMP280;51082;38.236;15.432;2023-06-22T02:50:48;101686.19;;;22.11
64296;BMP280;51082;38.236;15.432;2023-06-22T02:51:51;101676.41;;;22.11
64296;BMP280;51082;38.236;15.432;2023-06-22T02:52:56;101682.50;;;22.12
64296;BMP280;51082;38.236;15.432;2023-06-22T02:53:59;101686.19;;;22.11
64296;BMP280;51082;38.236;15.432;2023-06-22T02:55:01;101684.34;;;22.11
64296;BMP280;51082;38.236;15.432;2023-06-22T02:56:04;101684.56;;;22.10
64296;BMP280;51082;38.236;15.432;2023-06-22T02:57:06;101687.81;;;22.12
64296;BMP280;51082;38.236;15.432;2023-06-22T02:58:15;101680.34;;;22.09
64296;BMP280;51082;38.236;15.432;2023-06-22T02:59:17;101684.03;;;22.08
64296;BMP280;51082;38.236;15.432;2023-06-22T03:00:24;101674.97;;;22.03
64296;BMP280;51082;38.236;15.432;2023-06-22T03:01:32;101678.22;;;22.05
64296;BMP280;51082;38.236;15.432;2023-06-22T03:02:41;101679.47;;;22.03
64296;BMP280;51082;38.236;15.432;2023-06-22T03:03:42;101678.34;;;21.99
64296;BMP280;51082;38.236;15.432;2023-06-22T03:04:45;101679.97;;;22.00
64296;BMP280;51082;38.236;15.432;2023-06-22T03:05:49;101688.16;;;21.98
64296;BMP280;51082;38.236;15.432;2023-06-22T03:06:53;101681.81;;;21.99
64296;BMP280;51082;38.236;15.432;2023-06-22T03:08:02;101687.34;;;21.98
64296;BMP280;51082;38.236;15.432;2023-06-22T03:09:05;101685.50;;;21.98
64296;BMP280;51082;38.236;15.432;2023-06-22T03:10:07;101686.56;;;21.97
64296;BMP280;51082;38.236;15.432;2023-06-22T03:11:11;101683.66;;;21.99
64296;BMP280;51082;38.236;15.432;2023-06-22T03:12:15;101686.31;;;21.99
64296;BMP280;51082;38.236;15.432;2023-06-22T03:13:18;101686.56;;;21.97
64296;BMP280;51082;38.236;15.432;2023-06-22T03:14:20;101683.94;;;21.97
64296;BMP280;51082;38.236;15.432;2023-06-22T03:15:23;101687.84;;;21.95
64296;BMP280;51082;38.236;15.432;2023-06-22T03:16:27;101688.66;;;21.95
64296;BMP280;51082;38.236;15.432;2023-06-22T03:17:32;101683.13;;;21.97
64296;BMP280;51082;38.236;15.432;2023-06-22T03:18:33;101681.50;;;21.96
64296;BMP280;51082;38.236;15.432;2023-06-22T03:19:36;101688.66;;;21.95
64296;BMP280;51082;38.236;15.432;2023-06-22T03:20:38;101689.44;;;21.96
64296;BMP280;51082;38.236;15.432;2023-06-22T03:21:41;101700.88;;;21.96
64296;BMP280;51082;38.236;15.432;2023-06-22T03:22:43;101691.09;;;21.97
64296;BMP280;51082;38.236;15.432;2023-06-22T03:23:46;101687.03;;;21.94
64296;BMP280;51082;38.236;15.432;2023-06-22T03:24:47;101688.09;;;21.93
64296;BMP280;51082;38.236;15.432;2023-06-22T03:25:52;101688.66;;;21.95
64296;BMP280;51082;38.236;15.432;2023-06-22T03:26:53;101690.50;;;21.95
64296;BMP280;51082;38.236;15.432;2023-06-22T03:27:59;101687.13;;;21.99
64296;BMP280;51082;38.236;15.432;2023-06-22T03:29:01;101680.75;;;22.00
64296;BMP280;51082;38.236;15.432;2023-06-22T03:30:07;101692.66;;;21.98
64296;BMP280;51082;38.236;15.432;2023-06-22T03:31:09;101686.56;;;21.97
64296;BMP280;51082;38.236;15.432;2023-06-22T03:32:15;101687.69;;;22.01
64296;BMP280;51082;38.236;15.432;2023-06-22T03:33:19;101687.34;;;21.98
64296;BMP280;51082;38.236;15.432;2023-06-22T03:34:22;101683.94;;;21.97
64296;BMP280;51082;38.236;15.432;2023-06-22T03:35:24;101684.97;;;21.96
64296;BMP280;51082;38.236;15.432;2023-06-22T03:36:26;101686.22;;;21.94
64296;BMP280;51082;38.236;15.432;2023-06-22T03:37:29;101691.88;;;21.97
64296;BMP280;51082;38.236;15.432;2023-06-22T03:38:31;101703.53;;;21.96
64296;BMP280;51082;38.236;15.432;2023-06-22T03:39:34;101694.53;;;21.97
64296;BMP280;51082;38.236;15.432;2023-06-22T03:40:36;101704.06;;;21.98
64296;BMP280;51082;38.236;15.432;2023-06-22T03:41:39;101696.91;;;21.99
64296;BMP280;51082;38.236;15.432;2023-06-22T03:42:40;101688.44;;;21.97
64296;BMP280;51082;38.236;15.432;2023-06-22T03:43:43;101693.94;;;21.95
64296;BMP280;51082;38.236;15.432;2023-06-22T03:44:45;101687.03;;;21.94
64296;BMP280;51082;38.236;15.432;2023-06-22T03:45:49;101688.66;;;21.95
64296;BMP280;51082;38.236;15.432;2023-06-22T03:46:51;101693.72;;;21.97
64296;BMP280;51082;38.236;15.432;2023-06-22T03:47:53;101689.75;;;21.99
64296;BMP280;51082;38.236;15.432;2023-06-22T03:48:56;101686.63;;;22.02
64296;BMP280;51082;38.236;15.432;2023-06-22T03:49:59;101688.47;;;22.02
64296;BMP280;51082;38.236;15.432;2023-06-22T03:51:02;101691.38;;;22.00
64296;BMP280;51082;38.236;15.432;2023-06-22T03:52:05;101694.84;;;22.01
64296;BMP280;51082;38.236;15.432;2023-06-22T03:53:07;101694.25;;;21.99
64296;BMP280;51082;38.236;15.432;2023-06-22T03:54:10;101694.53;;;21.97
64296;BMP280;51082;38.236;15.432;2023-06-22T03:55:11;101695.59;;;21.96
64296;BMP280;51082;38.236;15.432;2023-06-22T03:56:15;101699.25;;;21.95
64296;BMP280;51082;38.236;15.432;2023-06-22T03:57:21;101701.38;;;21.93
64296;BMP280;51082;38.236;15.432;2023-06-22T03:58:31;101698.72;;;21.93
64296;BMP280;51082;38.236;15.432;2023-06-22T03:59:40;101688.88;;;21.94
64296;BMP280;51082;38.236;15.432;2023-06-22T04:00:44;101691.28;;;21.95
64296;BMP280;51082;38.236;15.432;2023-06-22T04:01:48;101692.94;;;21.96
64296;BMP280;51082;38.236;15.432;2023-06-22T04:02:49;101695.31;;;21.98
64296;BMP280;51082;38.236;15.432;2023-06-22T04:03:54;101691.94;;;22.02
64296;BMP280;51082;38.236;15.432;2023-06-22T04:05:00;101685.03;;;22.01
64296;BMP280;51082;38.236;15.432;2023-06-22T04:06:03;101688.81;;;22.05
64296;BMP280;51082;38.236;15.432;2023-06-22T04:07:04;101687.50;;;22.08
64296;BMP280;51082;38.236;15.432;2023-06-22T04:08:07;101685.66;;;22.09
64296;BMP280;51082;38.236;15.432;2023-06-22T04:09:09;101691.50;;;22.11
64296;BMP280;51082;38.236;15.432;2023-06-22T04:10:12;101683.00;;;22.09
64296;BMP280;51082;38.236;15.432;2023-06-22T04:12:31;101689.34;;;22.08
64296;BMP280;51082;38.236;15.432;2023-06-22T04:13:33;101684.56;;;22.10
64296;BMP280;51082;38.236;15.432;2023-06-22T04:14:36;101688.06;;;22.10
64296;BMP280;51082;38.236;15.432;2023-06-22T04:15:41;101685.16;;;22.12
64296;BMP280;51082;38.236;15.432;2023-06-22T04:16:42;101684.91;;;22.13
64296;BMP280;51082;38.236;15.432;2023-06-22T04:17:45;101690.22;;;22.13
64296;BMP280;51082;38.236;15.432;2023-06-22T04:18:47;101689.72;;;22.16
64296;BMP280;51082;38.236;15.432;2023-06-22T04:19:49;101683.94;;;22.19
64296;BMP280;51082;38.236;15.432;2023-06-22T04:20:53;101689.25;;;22.19
64296;BMP280;51082;38.236;15.432;2023-06-22T04:21:56;101682.63;;;22.22
64296;BMP280;51082;38.236;15.432;2023-06-22T04:23:00;101688.78;;;22.27
64296;BMP280;51082;38.236;15.432;2023-06-22T04:24:06;101685.34;;;22.27
64296;BMP280;51082;38.236;15.432;2023-06-22T04:25:08;101681.66;;;22.28
64296;BMP280;51082;38.236;15.432;2023-06-22T04:26:15;101681.13;;;22.31
64296;BMP280;51082;38.236;15.432;2023-06-22T04:27:16;101685.94;;;22.34
64296;BMP280;51082;38.236;15.432;2023-06-22T04:28:23;101687.06;;;22.38
64296;BMP280;51082;38.236;15.432;2023-06-22T04:29:27;101678.88;;;22.39
64296;BMP280;51082;38.236;15.432;2023-06-22T04:30:32;101679.16;;;22.43
64296;BMP280;51082;38.236;15.432;2023-06-22T04:31:37;101679.97;;;22.44
64296;BMP280;51082;38.236;15.432;2023-06-22T04:32:40;101686.63;;;22.46
64296;BMP280;51082;38.236;15.432;2023-06-22T04:33:42;101684.00;;;22.46
64296;BMP280;51082;38.236;15.432;2023-06-22T04:34:44;101683.47;;;22.49
64296;BMP280;51082;38.236;15.432;2023-06-22T04:35:46;101688.84;;;22.54
64296;BMP280;51082;38.236;15.432;2023-06-22T04:36:51;101689.94;;;22.58
64296;BMP280;51082;38.236;15.432;2023-06-22T04:37:58;101688.09;;;22.59
64296;BMP280;51082;38.236;15.432;2023-06-22T04:39:07;101686.28;;;22.59
64296;BMP280;51082;38.236;15.432;2023-06-22T04:40:11;101693.72;;;22.62
64296;BMP280;51082;38.236;15.432;2023-06-22T04:41:16;101694.00;;;22.66
64296;BMP280;51082;38.236;15.432;2023-06-22T04:42:27;101688.50;;;22.72
64296;BMP280;51082;38.236;15.432;2023-06-22T04:43:30;101687.22;;;22.75
64296;BMP280;51082;38.236;15.432;2023-06-22T04:44:32;101692.25;;;22.77
64296;BMP280;51082;38.236;15.432;2023-06-22T04:45:37;101697.66;;;22.82
64296;BMP280;51082;38.236;15.432;2023-06-22T04:46:39;101691.59;;;22.86
64296;BMP280;51082;38.236;15.432;2023-06-22T04:47:42;101687.03;;;22.87
64296;BMP280;51082;38.236;15.432;2023-06-22T04:48:44;101696.13;;;22.91
64296;BMP280;51082;38.236;15.432;2023-06-22T04:49:49;101699.34;;;22.98
64296;BMP280;51082;38.236;15.432;2023-06-22T04:50:52;101692.97;;;22.99
64296;BMP280;51082;38.236;15.432;2023-06-22T04:51:55;101694.09;;;23.03
64296;BMP280;51082;38.236;15.432;2023-06-22T04:52:57;101698.66;;;23.07
64296;BMP280;51082;38.236;15.432;2023-06-22T04:53:59;101693.88;;;23.09
64296;BMP280;51082;38.236;15.432;2023-06-22T04:55:02;101695.25;;;23.17
64296;BMP280;51082;38.236;15.432;2023-06-22T04:56:05;101699.84;;;23.22
64296;BMP280;51082;38.236;15.432;2023-06-22T04:57:09;101696.94;;;23.23
64296;BMP280;51082;38.236;15.432;2023-06-22T04:58:12;101699.16;;;23.36
64296;BMP280;51082;38.236;15.432;2023-06-22T04:59:21;101697.34;;;23.42
64296;BMP280;51082;38.236;15.432;2023-06-22T05:00:26;101703.59;;;23.63
64296;BMP280;51082;38.236;15.432;2023-06-22T05:01:32;101702.84;;;23.72
64296;BMP280;51082;38.236;15.432;2023-06-22T05:02:36;101703.72;;;23.88
64296;BMP280;51082;38.236;15.432;2023-06-22T05:03:38;101704.31;;;24.00
64296;BMP280;51082;38.236;15.432;2023-06-22T05:04:51;101703.31;;;24.17
64296;BMP280;51082;38.236;15.432;2023-06-22T05:05:58;101700.69;;;24.27
64296;BMP280;51082;38.236;15.432;2023-06-22T05:07:02;101705.81;;;24.38
64296;BMP280;51082;38.236;15.432;2023-06-22T05:08:05;101709.28;;;24.59
64296;BMP280;51082;38.236;15.432;2023-06-22T05:09:07;101707.19;;;24.76
64296;BMP280;51082;38.236;15.432;2023-06-22T05:10:12;101715.44;;;25.00
64296;BMP280;51082;38.236;15.432;2023-06-22T05:11:15;101714.13;;;25.18
64296;BMP280;51082;38.236;15.432;2023-06-22T05:12:16;101711.44;;;25.43
64296;BMP280;51082;38.236;15.432;2023-06-22T05:13:19;101710.84;;;25.62
64296;BMP280;51082;38.236;15.432;2023-06-22T05:14:25;101710.31;;;25.70
64296;BMP280;51082;38.236;15.432;2023-06-22T05:15:27;101711.84;;;25.81
64296;BMP280;51082;38.236;15.432;2023-06-22T05:16:31;101711.28;;;25.94
64296;BMP280;51082;38.236;15.432;2023-06-22T05:17:37;101727.34;;;26.33
64296;BMP280;51082;38.236;15.432;2023-06-22T05:18:46;101723.28;;;26.46
64296;BMP280;51082;38.236;15.432;2023-06-22T05:19:50;101728.47;;;26.66
64296;BMP280;51082;38.236;15.432;2023-06-22T05:20:56;101726.56;;;26.72
64296;BMP280;51082;38.236;15.432;2023-06-22T05:21:58;101721.94;;;26.82
64296;BMP280;51082;38.236;15.432;2023-06-22T05:23:03;101723.44;;;26.98
64296;BMP280;51082;38.236;15.432;2023-06-22T05:24:13;101724.97;;;27.05
64296;BMP280;51082;38.236;15.432;2023-06-22T05:25:19;101726.72;;;27.43
64296;BMP280;51082;38.236;15.432;2023-06-22T05:26:21;101727.47;;;27.49
64296;BMP280;51082;38.236;15.432;2023-06-22T05:27:27;101730.75;;;27.64
64296;BMP280;51082;38.236;15.432;2023-06-22T05:28:28;101727.44;;;27.72
64296;BMP280;51082;38.236;15.432;2023-06-22T05:29:31;101733.31;;;27.75
64296;BMP280;51082;38.236;15.432;2023-06-22T05:30:33;101731.47;;;27.94
64296;BMP280;51082;38.236;15.432;2023-06-22T05:31:36;101735.88;;;28.03
64296;BMP280;51082;38.236;15.432;2023-06-22T05:32:42;101725.88;;;28.09
64296;BMP280;51082;38.236;15.432;2023-06-22T05:33:45;101727.25;;;28.25
64296;BMP280;51082;38.236;15.432;2023-06-22T05:34:48;101726.09;;;28.31
64296;BMP280;51082;38.236;15.432;2023-06-22T05:35:50;101728.69;;;28.36
64296;BMP280;51082;38.236;15.432;2023-06-22T05:36:55;101730.50;;;28.60
64296;BMP280;51082;38.236;15.432;2023-06-22T05:37:59;101727.66;;;28.83
64296;BMP280;51082;38.236;15.432;2023-06-22T05:39:11;101733.88;;;29.11
64296;BMP280;51082;38.236;15.432;2023-06-22T05:40:14;101736.28;;;29.27
64296;BMP280;51082;38.236;15.432;2023-06-22T05:41:17;101740.66;;;29.50
64296;BMP280;51082;38.236;15.432;2023-06-22T05:42:21;101727.81;;;29.60
64296;BMP280;51082;38.236;15.432;2023-06-22T05:43:24;101745.56;;;29.84
64296;BMP280;51082;38.236;15.432;2023-06-22T05:44:28;101744.16;;;29.86
64296;BMP280;51082;38.236;15.432;2023-06-22T05:45:34;101738.78;;;29.86
64296;BMP280;51082;38.236;15.432;2023-06-22T05:46:36;101732.22;;;29.92
64296;BMP280;51082;38.236;15.432;2023-06-22T05:47:41;101749.19;;;30.02
64296;BMP280;51082;38.236;15.432;2023-06-22T05:48:46;101739.31;;;30.11
64296;BMP280;51082;38.236;15.432;2023-06-22T05:49:48;101740.03;;;30.16
64296;BMP280;51082;38.236;15.432;2023-06-22T05:51:00;101744.47;;;30.21
64296;BMP280;51082;38.236;15.432;2023-06-22T05:52:04;101745.78;;;30.32
64296;BMP280;51082;38.236;15.432;2023-06-22T05:53:05;101739.75;;;30.49
64296;BMP280;51082;38.236;15.432;2023-06-22T05:54:10;101739.66;;;30.85
64296;BMP280;51082;38.236;15.432;2023-06-22T05:55:14;101739.09;;;30.96
64296;BMP280;51082;38.236;15.432;2023-06-22T05:56:19;101747.34;;;31.17
64296;BMP280;51082;38.236;15.432;2023-06-22T05:57:21;101737.56;;;31.21
64296;BMP280;51082;38.236;15.432;2023-06-22T05:58:26;101742.81;;;31.26
64296;BMP280;51082;38.236;15.432;2023-06-22T05:59:31;101744.13;;;31.54
64296;BMP280;51082;38.236;15.432;2023-06-22T06:00:35;101741.94;;;31.74
64296;BMP280;51082;38.236;15.432;2023-06-22T06:01:38;101747.63;;;31.98